Bishop, Texas
Current Conditions -  °F | °C
As of 9:56 AM on Friday 28 Nov 2014 (Local Time) from KNQI Reporting Station
Few Clouds Few Clouds  
Wind Chill: 67°   Ceiling: Unl
Heat Index: 67°   Visibility: 10mi
Dew Point: 59°   Wind: 8mph
Humidity: 76%   Direction: 190°S
Pressure: 30.32"   Gusts: NA
Location:  27.59°N, 97.8°W
Report Text: KNQI 281556Z 19007KT 10SM FEW025 19/15 A3032 RMK AO2 SLP264 T01940150 $
Loading
Personal Weather Stations






























Interactive Weather Map New forecast layout! Learn more

10-Day Weather Forecast

Advertisements
Track Severe Weather on mobile